Time;durP1;ratioP1;P1;durP2;ratioP2;P2;SDS_P1;SDS_P2;PMS_P1;PMS_P2;Temp;Humidity;BMP_temperature;BMP_pressure;BME280_temperature;BME280_humidity;BME280_pressure;Samples;Min_cycle;Max_cycle;Signal;HPM_P1;HPM_P2
2023/03/26 00:01:04;;;;;;;12.50;3.70;;;9.90;99.90;;;;;;5074998;28;20603;-77
2023/03/26 00:03:32;;;;;;;15.23;3.40;;;9.90;99.90;;;;;;5075311;28;20173;-77
2023/03/26 00:06:06;;;;;;;17.57;3.50;;;9.90;99.90;;;;;;5075101;28;20169;-76
2023/03/26 00:08:33;;;;;;;17.30;3.37;;;9.80;99.90;;;;;;5074972;28;20161;-76
2023/03/26 00:11:05;;;;;;;11.23;2.70;;;9.70;99.90;;;;;;5074866;28;20237;-76
2023/03/26 00:13:37;;;;;;;16.07;4.00;;;9.70;99.90;;;;;;5073918;28;20212;-76
2023/03/26 00:16:03;;;;;;;11.33;3.40;;;9.70;99.90;;;;;;5074843;28;20179;-76
2023/03/26 00:18:30;;;;;;;14.53;3.70;;;9.70;99.90;;;;;;5074793;28;20224;-77
2023/03/26 00:21:01;;;;;;;13.77;3.80;;;9.70;99.90;;;;;;5074851;28;20226;-77
2023/03/26 00:23:28;;;;;;;14.57;3.73;;;9.70;99.90;;;;;;5074426;28;20169;-76
2023/03/26 00:25:55;;;;;;;15.27;4.00;;;9.60;99.90;;;;;;5074695;28;20230;-77
2023/03/26 00:28:22;;;;;;;18.57;4.83;;;9.60;99.90;;;;;;5074666;28;20625;-76
2023/03/26 00:30:49;;;;;;;18.20;4.63;;;9.70;99.90;;;;;;5074586;28;20160;-76
2023/03/26 00:33:18;;;;;;;15.80;3.93;;;9.60;99.90;;;;;;5074446;28;20208;-77
2023/03/26 00:35:46;;;;;;;14.97;3.90;;;9.60;99.90;;;;;;5074432;28;20161;-76
2023/03/26 00:38:15;;;;;;;14.80;4.13;;;9.70;99.90;;;;;;5074149;28;20177;-77
2023/03/26 00:40:42;;;;;;;15.57;4.27;;;9.80;99.90;;;;;;5074553;28;20255;-76
2023/03/26 00:43:17;;;;;;;20.60;4.83;;;9.80;99.90;;;;;;5074250;28;20256;-76
2023/03/26 00:45:47;;;;;;;20.43;4.40;;;9.90;99.90;;;;;;5056370;28;20179;-77
2023/03/26 00:48:14;;;;;;;18.33;4.43;;;9.90;99.90;;;;;;5074061;28;20169;-77
2023/03/26 00:50:41;;;;;;;18.97;4.70;;;9.90;99.90;;;;;;5074250;28;20164;-77
2023/03/26 00:53:07;;;;;;;20.50;4.60;;;10.00;99.90;;;;;;5073657;28;20731;-77
2023/03/26 00:55:34;;;;;;;18.37;4.97;;;10.00;99.90;;;;;;5074307;28;20228;-77
2023/03/26 00:58:00;;;;;;;16.57;4.50;;;9.90;99.90;;;;;;5073958;28;20191;-76
2023/03/26 01:00:30;;;;;;;20.30;4.77;;;10.00;99.90;;;;;;5073921;28;20176;-76
2023/03/26 01:02:57;;;;;;;23.30;5.17;;;9.90;99.90;;;;;;5073841;28;20237;-77
2023/03/26 01:05:35;;;;;;;15.40;4.73;;;10.00;99.90;;;;;;5074022;28;20259;-76
2023/03/26 01:08:21;;;;;;;21.30;5.33;;;10.00;99.90;;;;;;5073519;28;20180;-76
2023/03/26 01:10:49;;;;;;;16.47;4.57;;;10.00;99.90;;;;;;5073752;28;20164;-76
2023/03/26 01:13:20;;;;;;;15.10;4.97;;;10.00;99.90;;;;;;5073398;28;20204;-76
2023/03/26 01:15:49;;;;;;;16.67;4.50;;;10.10;99.90;;;;;;5073854;28;20329;-77
2023/03/26 01:18:25;;;;;;;14.87;4.47;;;10.00;99.90;;;;;;5073461;28;20231;-77
2023/03/26 01:20:57;;;;;;;18.87;4.90;;;10.00;99.90;;;;;;5055762;28;20176;-76
2023/03/26 01:23:32;;;;;;;16.83;4.10;;;9.90;99.90;;;;;;5073315;28;20210;-76
2023/03/26 01:26:24;;;;;;;18.40;4.97;;;9.80;99.90;;;;;;5073296;28;20271;-76
2023/03/26 01:28:56;;;;;;;15.00;4.00;;;9.70;99.90;;;;;;5072945;28;20273;-75
2023/03/26 01:31:48;;;;;;;16.60;4.30;;;9.70;99.90;;;;;;5073243;28;20233;-77
2023/03/26 01:34:29;;;;;;;9.50;3.43;;;9.60;99.90;;;;;;5073333;28;20188;-77
2023/03/26 01:37:29;;;;;;;9.90;3.87;;;9.50;99.90;;;;;;5073207;28;20173;-77
2023/03/26 01:40:41;;;;;;;10.47;3.50;;;9.60;99.90;;;;;;5070785;28;20180;-76
2023/03/26 01:43:25;;;;;;;15.73;3.87;;;9.60;99.90;;;;;;5031301;28;20194;-76
2023/03/26 01:45:51;;;;;;;17.70;3.70;;;9.50;99.90;;;;;;5071352;28;20721;-76
2023/03/26 01:48:17;;;;;;;15.00;3.90;;;9.60;99.90;;;;;;5073197;28;20717;-76
2023/03/26 01:50:44;;;;;;;15.67;4.30;;;9.70;99.90;;;;;;5072734;28;20221;-76
2023/03/26 01:53:12;;;;;;;15.60;3.70;;;9.70;99.90;;;;;;5073064;28;20200;-76
2023/03/26 01:55:37;;;;;;;16.30;4.10;;;9.70;99.90;;;;;;5072955;28;20192;-76
2023/03/26 01:58:06;;;;;;;21.30;4.60;;;9.70;99.90;;;;;;5073271;28;20172;-76
2023/03/26 02:00:52;;;;;;;20.63;4.93;;;9.70;99.90;;;;;;5055048;28;20558;-77
2023/03/26 02:03:31;;;;;;;16.17;4.30;;;9.70;99.90;;;;;;5072686;28;20171;-78
2023/03/26 02:06:14;;;;;;;16.17;3.70;;;9.80;99.90;;;;;;5072594;28;20164;-77
2023/03/26 02:09:08;;;;;;;19.13;4.30;;;9.80;99.90;;;;;;5073114;28;20160;-77
2023/03/26 02:11:36;;;;;;;17.90;4.67;;;9.80;99.90;;;;;;5070919;28;20190;-78
2023/03/26 02:14:04;;;;;;;14.57;3.70;;;9.80;99.90;;;;;;5072919;28;20210;-77
2023/03/26 02:16:30;;;;;;;14.67;4.40;;;9.80;99.90;;;;;;5072878;28;20198;-76
2023/03/26 02:18:58;;;;;;;18.47;4.20;;;9.80;99.90;;;;;;5072975;28;20176;-77
2023/03/26 02:21:26;;;;;;;14.33;3.93;;;9.80;99.90;;;;;;5072495;28;20177;-77
2023/03/26 02:24:01;;;;;;;16.43;4.23;;;9.80;99.90;;;;;;5072763;28;20667;-77
2023/03/26 02:26:32;;;;;;;15.10;4.10;;;9.90;99.90;;;;;;5073233;28;20179;-77
2023/03/26 02:28:58;;;;;;;14.23;3.87;;;9.80;99.90;;;;;;5073156;28;20168;-76
2023/03/26 02:31:25;;;;;;;24.20;4.77;;;9.90;99.90;;;;;;5072820;28;20259;-77
2023/03/26 02:33:51;;;;;;;16.70;4.13;;;9.90;99.90;;;;;;5073159;28;20196;-76
2023/03/26 02:36:23;;;;;;;14.83;3.93;;;9.90;99.90;;;;;;5075348;28;20164;-77
2023/03/26 02:38:50;;;;;;;13.97;3.97;;;9.90;99.90;;;;;;5076946;28;20172;-77
2023/03/26 02:41:16;;;;;;;15.53;3.93;;;9.90;99.90;;;;;;5076719;28;20169;-76
2023/03/26 02:43:44;;;;;;;15.67;3.77;;;9.90;99.90;;;;;;5076941;28;20218;-77
2023/03/26 02:46:13;;;;;;;13.33;3.53;;;9.90;99.90;;;;;;5076478;28;20168;-76
2023/03/26 02:48:40;;;;;;;11.90;3.67;;;9.80;99.90;;;;;;5076313;28;20169;-77
2023/03/26 02:51:06;;;;;;;15.83;4.17;;;9.80;99.90;;;;;;5076484;28;20169;-77
2023/03/26 02:53:32;;;;;;;12.83;3.30;;;9.80;99.90;;;;;;5076308;28;20212;-77
2023/03/26 02:55:59;;;;;;;9.70;3.67;;;9.90;99.90;;;;;;5076334;28;20671;-77
2023/03/26 02:58:25;;;;;;;13.90;4.17;;;9.80;99.90;;;;;;5076828;28;20183;-76
2023/03/26 03:00:57;;;;;;;16.37;4.03;;;9.90;99.90;;;;;;5076399;28;20169;-76
2023/03/26 03:03:30;;;;;;;21.60;4.37;;;9.90;99.90;;;;;;5076064;28;20169;-76
2023/03/26 03:06:00;;;;;;;12.70;3.80;;;10.00;99.90;;;;;;5076384;28;20165;-77
2023/03/26 03:08:48;;;;;;;13.20;3.93;;;10.00;99.90;;;;;;5076092;28;20187;-77
2023/03/26 03:11:20;;;;;;;14.93;3.93;;;10.00;99.90;;;;;;5075252;28;20276;-75
2023/03/26 03:13:46;;;;;;;14.37;3.63;;;10.00;99.90;;;;;;5076124;28;20216;-77
2023/03/26 03:16:12;;;;;;;11.93;3.83;;;10.00;99.90;;;;;;5076000;28;20242;-76
2023/03/26 03:18:40;;;;;;;11.70;3.60;;;10.00;99.90;;;;;;5075534;28;20259;-77
2023/03/26 03:21:06;;;;;;;20.67;4.00;;;10.00;99.90;;;;;;5076038;28;20169;-77
2023/03/26 03:23:32;;;;;;;14.90;4.30;;;10.00;99.90;;;;;;5075864;28;20248;-76
2023/03/26 03:25:58;;;;;;;13.83;4.00;;;9.90;99.90;;;;;;5075697;28;20173;-76
2023/03/26 03:28:25;;;;;;;14.13;3.70;;;10.00;99.90;;;;;;5075866;28;20184;-75
2023/03/26 03:30:56;;;;;;;13.90;4.03;;;10.00;99.90;;;;;;5075515;28;20173;-77
2023/03/26 03:33:22;;;;;;;16.37;4.00;;;10.00;99.90;;;;;;5075271;28;20223;-76
2023/03/26 03:35:49;;;;;;;13.23;4.17;;;10.00;99.90;;;;;;5075425;28;20172;-76
2023/03/26 03:38:18;;;;;;;10.97;3.67;;;10.00;99.90;;;;;;5075583;28;20608;-77
2023/03/26 03:40:43;;;;;;;14.57;4.00;;;10.00;99.90;;;;;;5075712;28;20168;-76
2023/03/26 03:43:12;;;;;;;13.53;3.47;;;9.90;99.90;;;;;;5074651;28;20184;-77
2023/03/26 03:45:38;;;;;;;15.17;4.10;;;9.90;99.90;;;;;;5075456;28;20196;-76
2023/03/26 03:48:03;;;;;;;10.03;3.80;;;9.90;99.90;;;;;;5073866;28;20632;-76
2023/03/26 03:50:30;;;;;;;14.90;3.93;;;9.90;99.90;;;;;;5075047;28;20173;-76
2023/03/26 03:52:59;;;;;;;16.40;3.50;;;9.90;99.90;;;;;;5075206;28;20200;-75
2023/03/26 03:55:26;;;;;;;10.23;3.17;;;9.90;99.90;;;;;;5075175;28;20189;-76
2023/03/26 03:57:53;;;;;;;17.37;4.23;;;10.00;99.90;;;;;;5075110;28;20628;-77
2023/03/26 04:00:21;;;;;;;14.37;4.00;;;10.00;99.90;;;;;;5075091;28;20180;-76
2023/03/26 04:02:47;;;;;;;18.17;3.77;;;10.10;99.90;;;;;;5074475;28;20225;-76
2023/03/26 04:05:12;;;;;;;16.10;3.73;;;10.10;99.90;;;;;;5075076;28;20639;-76
2023/03/26 04:07:38;;;;;;;14.53;4.00;;;10.10;99.90;;;;;;5074875;28;20177;-76
2023/03/26 04:10:06;;;;;;;11.33;3.47;;;10.10;99.90;;;;;;5074964;28;20628;-76
2023/03/26 04:12:31;;;;;;;15.87;3.90;;;10.10;99.90;;;;;;5074667;28;20655;-76
2023/03/26 04:14:58;;;;;;;13.00;3.83;;;10.10;99.90;;;;;;5074915;28;20237;-77
2023/03/26 04:17:29;;;;;;;13.43;4.03;;;9.90;99.90;;;;;;5074201;28;20224;-76
2023/03/26 04:19:55;;;;;;;12.30;3.57;;;9.80;99.90;;;;;;5074693;28;20203;-75
2023/03/26 04:22:33;;;;;;;14.97;4.00;;;9.80;99.90;;;;;;5074494;28;20204;-76
2023/03/26 04:25:01;;;;;;;15.13;3.80;;;9.80;99.90;;;;;;5074476;28;20169;-76
2023/03/26 04:27:30;;;;;;;14.03;3.47;;;9.70;99.90;;;;;;5074387;28;20176;-77
2023/03/26 04:29:58;;;;;;;11.07;3.43;;;9.70;99.90;;;;;;5074776;28;20253;-76
2023/03/26 04:32:28;;;;;;;12.30;3.60;;;9.70;99.90;;;;;;5074404;28;20208;-77
2023/03/26 04:34:55;;;;;;;12.37;3.70;;;9.80;99.90;;;;;;5074698;28;20297;-76
2023/03/26 04:37:33;;;;;;;13.57;3.30;;;9.80;99.90;;;;;;5074466;28;20173;-76
2023/03/26 04:40:00;;;;;;;13.00;3.43;;;9.80;99.90;;;;;;5073836;28;20778;-75
2023/03/26 04:42:25;;;;;;;13.80;3.83;;;9.90;99.90;;;;;;5073981;28;20659;-76
2023/03/26 04:44:51;;;;;;;12.73;3.50;;;9.90;99.90;;;;;;5073339;28;20181;-75
2023/03/26 04:47:17;;;;;;;9.20;3.17;;;9.90;99.90;;;;;;5074215;28;20172;-76
2023/03/26 04:49:44;;;;;;;11.07;3.50;;;9.80;99.90;;;;;;5073666;28;20226;-75
2023/03/26 04:52:11;;;;;;;12.00;3.27;;;9.80;99.90;;;;;;5073690;28;20683;-76
2023/03/26 04:54:37;;;;;;;12.87;3.20;;;9.80;99.90;;;;;;5073597;28;20769;-76
2023/03/26 04:57:18;;;;;;;7.93;3.10;;;9.90;99.90;;;;;;5073885;28;20288;-75
2023/03/26 04:59:44;;;;;;;11.23;3.30;;;9.80;99.90;;;;;;5072922;28;20176;-75
2023/03/26 05:02:11;;;;;;;12.77;3.03;;;9.80;99.90;;;;;;5073993;28;20627;-76
2023/03/26 05:04:42;;;;;;;9.87;2.63;;;9.80;99.90;;;;;;5073599;28;20263;-75
2023/03/26 05:07:09;;;;;;;16.07;3.30;;;9.80;99.90;;;;;;5074546;28;20199;-77
2023/03/26 05:09:35;;;;;;;5.50;2.30;;;9.80;65.00;;;;;;5073598;28;20230;-75
2023/03/26 05:12:01;;;;;;;6.17;1.90;;;9.80;43.70;;;;;;5073233;28;20195;-75
2023/03/26 05:14:27;;;;;;;4.70;1.70;;;9.90;25.30;;;;;;5073316;28;20172;-75
2023/03/26 05:16:53;;;;;;;6.50;1.80;;;9.90;5.00;;;;;;5073006;28;20780;-75
2023/03/26 05:19:18;;;;;;;7.13;2.23;;;10.00;17.40;;;;;;5073685;28;20177;-75
2023/03/26 05:21:53;;;;;;;5.00;2.03;;;10.00;17.80;;;;;;5073452;28;20695;-75
2023/03/26 05:24:19;;;;;;;3.43;1.90;;;9.90;15.40;;;;;;5073425;28;20215;-75
2023/03/26 05:26:44;;;;;;;5.57;1.93;;;9.90;20.40;;;;;;5073192;28;20213;-75
2023/03/26 05:29:11;;;;;;;7.67;2.27;;;9.80;23.50;;;;;;5073042;28;20168;-75
2023/03/26 05:31:37;;;;;;;6.00;2.03;;;9.80;29.80;;;;;;5073100;28;20275;-75
2023/03/26 05:34:02;;;;;;;6.43;2.00;;;9.70;27.80;;;;;;5073199;28;20676;-75
2023/03/26 05:36:28;;;;;;;5.00;1.70;;;9.60;25.00;;;;;;5073286;28;20211;-76
2023/03/26 05:38:57;;;;;;;9.80;2.33;;;9.60;24.60;;;;;;5073177;28;20204;-76
2023/03/26 05:41:23;;;;;;;8.90;2.17;;;9.60;29.30;;;;;;5072884;28;20207;-75
2023/03/26 05:43:49;;;;;;;7.27;2.00;;;9.50;37.50;;;;;;5072837;28;20200;-75
2023/03/26 05:46:15;;;;;;;7.70;1.93;;;9.50;41.20;;;;;;5072841;28;20183;-75
2023/03/26 05:48:41;;;;;;;4.47;1.93;;;9.50;51.30;;;;;;5072684;28;20176;-75
2023/03/26 05:51:07;;;;;;;7.33;2.20;;;9.40;63.80;;;;;;5073048;28;20543;-76
2023/03/26 05:53:33;;;;;;;8.40;2.60;;;9.30;81.20;;;;;;5072826;28;20211;-75
2023/03/26 05:55:59;;;;;;;4.47;2.17;;;9.20;93.60;;;;;;5073077;28;20188;-76
2023/03/26 05:58:30;;;;;;;9.53;2.43;;;9.10;97.30;;;;;;5072408;28;20265;-75
2023/03/26 06:00:58;;;;;;;7.40;2.13;;;9.00;99.90;;;;;;5072640;28;20199;-76
2023/03/26 06:03:23;;;;;;;10.33;2.60;;;9.00;99.90;;;;;;5072699;28;20189;-76
2023/03/26 06:05:50;;;;;;;7.07;2.20;;;8.90;99.90;;;;;;5072741;28;20207;-76
2023/03/26 06:08:15;;;;;;;8.53;2.77;;;8.80;99.90;;;;;;5073021;28;20521;-76
2023/03/26 06:10:41;;;;;;;8.43;2.43;;;8.70;99.90;;;;;;5072276;28;20180;-77
2023/03/26 06:13:10;;;;;;;7.67;2.27;;;8.80;99.90;;;;;;5071467;28;20687;-77
2023/03/26 06:15:36;;;;;;;7.03;2.37;;;8.70;99.90;;;;;;5074123;28;20200;-78
2023/03/26 06:18:02;;;;;;;6.07;2.23;;;8.70;99.90;;;;;;5073651;28;20224;-77
2023/03/26 06:20:27;;;;;;;6.83;2.60;;;8.60;99.90;;;;;;5072756;28;20585;-75
2023/03/26 06:22:59;;;;;;;9.37;2.70;;;8.60;99.90;;;;;;5072555;28;20172;-74
2023/03/26 06:25:25;;;;;;;8.30;2.30;;;8.60;99.90;;;;;;5072540;28;20168;-74
2023/03/26 06:27:50;;;;;;;9.77;2.70;;;8.50;99.90;;;;;;5072177;28;20168;-73
2023/03/26 06:30:16;;;;;;;7.83;2.60;;;8.60;99.90;;;;;;5072761;28;20176;-72
2023/03/26 06:32:41;;;;;;;8.33;2.60;;;8.50;99.90;;;;;;5072309;28;20204;-72
2023/03/26 06:35:07;;;;;;;7.57;2.20;;;8.40;99.90;;;;;;5072532;28;20192;-72
2023/03/26 06:37:33;;;;;;;10.10;3.10;;;8.50;99.90;;;;;;5072511;28;20290;-72
2023/03/26 06:39:59;;;;;;;7.30;2.87;;;8.40;99.90;;;;;;5072557;28;20176;-73
2023/03/26 06:42:27;;;;;;;7.77;2.80;;;8.50;99.90;;;;;;5071984;28;20173;-73
2023/03/26 06:44:53;;;;;;;9.17;2.40;;;8.40;99.90;;;;;;5072586;28;20164;-73
2023/03/26 06:47:18;;;;;;;8.13;2.70;;;8.50;99.90;;;;;;5072630;28;20173;-74
2023/03/26 06:49:44;;;;;;;7.53;2.93;;;8.40;99.90;;;;;;5072263;28;20559;-74
2023/03/26 06:52:13;;;;;;;8.20;2.83;;;8.30;99.90;;;;;;5072311;28;20220;-74
2023/03/26 06:54:38;;;;;;;11.53;3.47;;;8.20;99.90;;;;;;5072236;28;20316;-72
2023/03/26 06:57:04;;;;;;;5.07;2.70;;;8.20;99.90;;;;;;5071861;28;20172;-73
2023/03/26 06:59:29;;;;;;;6.57;2.20;;;8.20;99.90;;;;;;5072188;28;20165;-73
2023/03/26 07:01:55;;;;;;;5.27;1.90;;;8.10;99.90;;;;;;5072171;28;20164;-74
2023/03/26 07:04:21;;;;;;;4.63;1.90;;;8.10;99.90;;;;;;5072045;28;20169;-73
2023/03/26 07:06:46;;;;;;;4.73;1.77;;;8.10;99.90;;;;;;5072164;28;20513;-72
2023/03/26 07:09:18;;;;;;;4.20;1.80;;;8.00;99.90;;;;;;5071907;28;20176;-71
2023/03/26 07:11:44;;;;;;;3.10;1.30;;;8.00;99.90;;;;;;5071174;28;20705;-73
2023/03/26 07:14:09;;;;;;;6.33;1.90;;;7.90;99.90;;;;;;5071998;28;20259;-74
2023/03/26 07:16:37;;;;;;;4.40;1.40;;;7.90;99.90;;;;;;5071472;28;20218;-72
2023/03/26 07:19:03;;;;;;;6.40;1.73;;;7.90;99.90;;;;;;5071655;28;20699;-73
2023/03/26 07:21:29;;;;;;;2.70;1.40;;;7.90;99.90;;;;;;5073454;28;20176;-73
2023/03/26 07:23:55;;;;;;;4.80;1.67;;;7.90;99.90;;;;;;5074907;28;20648;-75
2023/03/26 07:27:01;;;;;;;6.87;1.83;;;7.80;99.90;;;;;;5074748;28;20176;-74
2023/03/26 07:29:38;;;;;;;6.07;1.70;;;7.80;99.90;;;;;;5075547;28;20183;-74
2023/03/26 07:32:17;;;;;;;2.43;1.37;;;7.70;99.90;;;;;;5075613;28;20215;-73
2023/03/26 07:35:01;;;;;;;7.73;2.10;;;7.70;99.90;;;;;;5075066;28;20302;-75
2023/03/26 07:37:59;;;;;;;4.03;2.33;;;7.70;99.90;;;;;;5075342;28;20169;-74
2023/03/26 07:40:44;;;;;;;7.53;2.07;;;7.80;99.90;;;;;;5074449;28;20176;-74
2023/03/26 07:43:47;;;;;;;3.87;1.87;;;7.80;99.90;;;;;;5075289;28;20179;-73
2023/03/26 07:46:14;;;;;;;4.80;1.60;;;7.70;99.90;;;;;;5075413;28;20183;-74
2023/03/26 07:48:43;;;;;;;2.87;1.20;;;7.70;99.90;;;;;;5074984;28;20647;-74
2023/03/26 07:51:10;;;;;;;4.07;1.60;;;7.60;99.90;;;;;;5074582;28;20168;-76
2023/03/26 07:53:36;;;;;;;3.13;1.60;;;7.60;99.90;;;;;;5074732;28;20207;-75
2023/03/26 07:56:07;;;;;;;5.03;1.63;;;7.60;99.90;;;;;;5074620;28;20176;-75
2023/03/26 07:58:52;;;;;;;4.97;1.70;;;7.70;99.90;;;;;;5074627;28;20168;-75
2023/03/26 08:01:35;;;;;;;3.67;1.43;;;7.60;99.90;;;;;;5074757;28;20252;-76
2023/03/26 08:04:14;;;;;;;2.57;1.73;;;7.60;99.90;;;;;;5074716;28;20218;-76
2023/03/26 08:06:55;;;;;;;2.70;1.60;;;7.60;99.90;;;;;;5074934;28;20168;-76
2023/03/26 08:09:50;;;;;;;4.23;1.77;;;7.60;99.90;;;;;;5074304;28;20176;-74
2023/03/26 08:12:21;;;;;;;2.57;1.17;;;7.60;99.90;;;;;;5074303;28;20208;-76
2023/03/26 08:14:56;;;;;;;2.63;1.40;;;7.60;99.90;;;;;;5074684;28;20165;-75
2023/03/26 08:17:41;;;;;;;1.97;1.33;;;7.60;99.90;;;;;;5074702;28;20215;-76
2023/03/26 08:20:43;;;;;;;4.47;1.80;;;7.50;99.90;;;;;;5074285;28;20165;-75
2023/03/26 08:23:37;;;;;;;2.60;1.23;;;7.60;99.90;;;;;;5045317;28;20546;-74
2023/03/26 08:26:15;;;;;;;3.60;1.63;;;7.60;99.90;;;;;;5074066;28;20211;-75
2023/03/26 08:29:12;;;;;;;2.40;1.50;;;7.70;99.90;;;;;;5074441;28;20168;-75
2023/03/26 08:31:43;;;;;;;2.87;1.47;;;7.60;99.90;;;;;;5032451;28;20217;-75
2023/03/26 08:34:12;;;;;;;3.93;1.10;;;7.60;99.90;;;;;;5031735;28;20192;-75
2023/03/26 08:36:39;;;;;;;3.23;1.40;;;7.50;99.90;;;;;;5031136;28;20190;-76
2023/03/26 08:39:05;;;;;;;4.03;1.33;;;7.50;99.90;;;;;;5031836;28;20216;-75
2023/03/26 08:41:49;;;;;;;2.57;1.70;;;7.40;99.90;;;;;;5031804;28;20181;-75
2023/03/26 08:44:33;;;;;;;2.97;1.90;;;7.50;99.90;;;;;;5032175;28;20224;-76
2023/03/26 08:47:20;;;;;;;4.37;1.80;;;7.50;99.90;;;;;;5031874;28;20638;-75
2023/03/26 08:50:02;;;;;;;5.23;1.87;;;7.50;99.90;;;;;;5031478;28;20190;-75
2023/03/26 08:53:04;;;;;;;3.77;1.90;;;7.50;99.90;;;;;;5031376;28;20209;-76
2023/03/26 08:55:51;;;;;;;5.07;2.30;;;7.60;99.90;;;;;;5030942;28;20205;-75
2023/03/26 08:58:40;;;;;;;3.87;1.97;;;7.60;99.90;;;;;;5031604;28;20169;-74
2023/03/26 09:01:45;;;;;;;2.70;1.67;;;7.60;99.90;;;;;;5031198;28;20265;-76
2023/03/26 09:04:30;;;;;;;3.97;1.93;;;7.70;99.90;;;;;;5031421;28;20224;-75
2023/03/26 09:07:11;;;;;;;5.03;2.03;;;7.70;99.90;;;;;;5033926;28;20178;-75
2023/03/26 09:09:39;;;;;;;2.43;2.07;;;7.70;99.90;;;;;;5073435;28;20165;-75
2023/03/26 09:12:27;;;;;;;6.13;2.00;;;7.80;99.90;;;;;;5072790;28;20283;-74
2023/03/26 09:15:23;;;;;;;4.60;2.50;;;7.70;99.90;;;;;;5073348;28;20164;-75
2023/03/26 09:18:19;;;;;;;7.57;2.37;;;7.80;99.90;;;;;;5073223;28;20261;-75
2023/03/26 09:21:06;;;;;;;3.90;2.10;;;7.80;99.90;;;;;;5072307;28;20254;-75
2023/03/26 09:23:51;;;;;;;3.37;2.20;;;7.70;99.90;;;;;;5073628;28;20167;-75
2023/03/26 09:26:26;;;;;;;4.13;2.53;;;7.80;99.90;;;;;;5072782;28;20165;-75
2023/03/26 09:29:23;;;;;;;3.97;3.23;;;7.90;99.90;;;;;;5072952;28;20160;-74
2023/03/26 09:32:22;;;;;;;4.60;3.03;;;7.80;99.90;;;;;;5072877;28;20164;-74
2023/03/26 09:35:26;;;;;;;3.77;2.40;;;7.80;99.90;;;;;;5072788;28;20257;-74
2023/03/26 09:38:23;;;;;;;5.07;2.10;;;7.80;99.90;;;;;;5072986;28;20188;-74
2023/03/26 09:41:01;;;;;;;4.87;2.17;;;7.80;99.90;;;;;;5072961;28;20172;-74
2023/03/26 09:43:41;;;;;;;4.13;2.27;;;7.80;99.90;;;;;;5073074;28;20176;-73
2023/03/26 09:46:16;;;;;;;2.00;1.77;;;7.80;99.90;;;;;;5072000;28;20207;-76
2023/03/26 09:48:41;;;;;;;6.77;2.73;;;7.80;99.90;;;;;;5072854;28;20170;-75
2023/03/26 09:51:33;;;;;;;13.03;6.20;;;7.80;99.90;;;;;;5072102;28;20165;-76
2023/03/26 09:54:36;;;;;;;4.97;2.67;;;7.80;99.90;;;;;;5072899;28;20299;-75
2023/03/26 09:57:38;;;;;;;4.57;2.00;;;7.70;99.90;;;;;;5072988;28;20243;-74
2023/03/26 10:00:26;;;;;;;4.00;2.20;;;7.70;99.90;;;;;;5072308;28;20175;-74
2023/03/26 10:03:29;;;;;;;5.57;2.30;;;7.70;99.90;;;;;;5072718;28;20171;-76
2023/03/26 10:05:58;;;;;;;5.07;2.17;;;7.80;99.90;;;;;;5072624;28;20722;-76
2023/03/26 10:08:35;;;;;;;3.40;2.07;;;7.60;99.90;;;;;;5072558;28;20169;-76
2023/03/26 10:11:18;;;;;;;4.43;2.10;;;7.80;99.90;;;;;;5072669;28;20164;-77
2023/03/26 10:13:59;;;;;;;7.20;2.27;;;7.70;99.90;;;;;;5072481;28;20385;-75
2023/03/26 10:16:50;;;;;;;3.47;2.00;;;7.90;99.90;;;;;;5072609;28;20520;-75
2023/03/26 10:19:30;;;;;;;5.50;2.10;;;7.90;99.90;;;;;;5032360;28;20691;-74
2023/03/26 10:22:04;;;;;;;6.03;2.33;;;7.90;99.90;;;;;;5032745;28;20173;-75
2023/03/26 10:24:45;;;;;;;5.13;2.10;;;7.90;99.90;;;;;;5032301;28;20232;-73
2023/03/26 10:27:23;;;;;;;7.87;1.90;;;7.90;99.90;;;;;;5032543;28;20182;-75
2023/03/26 10:30:07;;;;;;;3.30;1.90;;;7.90;99.90;;;;;;5032564;28;20192;-75
2023/03/26 10:32:50;;;;;;;7.07;2.40;;;7.80;99.90;;;;;;5032434;28;20201;-75
2023/03/26 10:35:54;;;;;;;4.13;2.37;;;7.90;99.90;;;;;;5032447;28;20166;-75
2023/03/26 10:38:44;;;;;;;4.87;2.00;;;8.00;99.90;;;;;;5032577;28;20173;-74
2023/03/26 10:41:24;;;;;;;3.27;1.90;;;7.90;99.90;;;;;;5032067;28;20204;-75
2023/03/26 10:44:23;;;;;;;3.43;2.20;;;8.00;99.90;;;;;;5032792;28;20165;-75
2023/03/26 10:47:39;;;;;;;2.27;2.07;;;7.80;99.90;;;;;;5032162;28;20178;-75
2023/03/26 10:50:54;;;;;;;4.40;2.33;;;7.90;99.90;;;;;;5030695;28;20182;-75
2023/03/26 10:53:26;;;;;;;1.70;1.60;;;7.90;99.90;;;;;;5030394;28;20221;-75
2023/03/26 10:56:28;;;;;;;3.10;2.33;;;7.80;99.90;;;;;;5032702;28;20292;-75
2023/03/26 10:58:55;;;;;;;5.17;3.13;;;7.90;99.90;;;;;;5033655;28;20178;-75
2023/03/26 11:01:23;;;;;;;2.87;2.33;;;7.90;99.90;;;;;;5033626;28;20637;-75
2023/03/26 11:03:54;;;;;;;3.70;2.27;;;8.00;99.90;;;;;;5033543;28;20217;-75
2023/03/26 11:06:50;;;;;;;3.23;2.47;;;8.00;99.90;;;;;;5033443;28;20170;-74
2023/03/26 11:09:34;;;;;;;4.50;2.90;;;7.90;99.90;;;;;;5033590;28;20190;-74
2023/03/26 11:12:24;;;;;;;5.50;2.97;;;8.10;99.90;;;;;;5033197;28;20174;-75
2023/03/26 11:15:04;;;;;;;2.87;2.27;;;8.00;99.90;;;;;;5033093;28;20170;-75
2023/03/26 11:17:43;;;;;;;7.23;3.00;;;8.00;99.90;;;;;;5032992;28;20368;-75
2023/03/26 11:20:43;;;;;;;3.27;2.33;;;8.00;99.90;;;;;;5033814;28;20269;-75
2023/03/26 11:23:23;;;;;;;5.50;3.03;;;8.20;99.90;;;;;;5033321;28;20186;-74
2023/03/26 11:26:13;;;;;;;3.20;2.90;;;8.10;99.90;;;;;;5033349;28;20332;-74
2023/03/26 11:28:59;;;;;;;3.10;2.50;;;8.10;99.90;;;;;;5033535;28;20221;-74
2023/03/26 11:31:49;;;;;;;2.80;2.60;;;8.20;99.90;;;;;;5033056;28;20232;-75
2023/03/26 11:34:20;;;;;;;3.07;2.73;;;8.20;99.90;;;;;;5033235;28;20201;-73
2023/03/26 11:36:54;;;;;;;5.07;3.37;;;8.20;99.90;;;;;;5035492;28;20162;-75
2023/03/26 11:39:38;;;;;;;3.97;3.10;;;8.40;99.90;;;;;;5035184;28;20234;-75
2023/03/26 11:42:12;;;;;;;2.67;2.47;;;8.60;99.90;;;;;;5035371;28;20332;-75
2023/03/26 11:44:44;;;;;;;4.53;3.00;;;8.50;99.90;;;;;;5034908;28;20633;-75
2023/03/26 11:47:13;;;;;;;3.87;3.20;;;8.60;99.90;;;;;;5035008;28;20174;-74
2023/03/26 11:49:44;;;;;;;5.07;2.87;;;8.90;99.90;;;;;;5034948;28;20178;-76
2023/03/26 11:52:11;;;;;;;3.90;2.93;;;9.00;99.90;;;;;;5034795;28;20202;-75
2023/03/26 11:54:37;;;;;;;5.17;2.90;;;9.20;99.90;;;;;;5035264;28;20614;-74
2023/03/26 11:57:11;;;;;;;3.23;2.90;;;9.00;99.90;;;;;;5034825;28;20186;-76
2023/03/26 12:00:09;;;;;;;5.03;3.13;;;9.20;99.90;;;;;;5034565;28;20166;-76
2023/03/26 12:02:56;;;;;;;5.33;2.97;;;9.20;99.90;;;;;;5034648;28;20173;-74
2023/03/26 12:05:28;;;;;;;3.73;2.60;;;9.60;99.90;;;;;;5034765;28;20251;-76
2023/03/26 12:07:57;;;;;;;4.70;2.53;;;9.30;99.90;;;;;;5033910;28;20243;-76
2023/03/26 12:10:28;;;;;;;2.47;2.27;;;9.40;99.90;;;;;;5034476;28;20178;-76
2023/03/26 12:12:57;;;;;;;2.97;2.70;;;9.30;99.90;;;;;;5034471;28;20214;-76
2023/03/26 12:15:27;;;;;;;2.83;2.50;;;9.30;99.90;;;;;;5034139;28;20249;-76
2023/03/26 12:17:58;;;;;;;2.83;2.50;;;9.30;99.90;;;;;;5052368;28;20679;-75
2023/03/26 12:20:23;;;;;;;2.90;2.40;;;9.40;99.90;;;;;;5074446;28;20169;-75
2023/03/26 12:23:03;;;;;;;3.57;2.67;;;9.20;99.90;;;;;;5074225;28;20175;-76
2023/03/26 12:25:37;;;;;;;3.17;2.67;;;9.20;99.90;;;;;;5074209;28;20165;-75
2023/03/26 12:28:17;;;;;;;3.27;2.90;;;9.50;99.90;;;;;;5074085;28;20173;-76
2023/03/26 12:30:57;;;;;;;2.97;2.67;;;9.30;99.90;;;;;;5073613;28;20164;-75
2023/03/26 12:33:32;;;;;;;4.10;3.43;;;9.40;99.90;;;;;;5074480;28;20212;-75
2023/03/26 12:36:15;;;;;;;3.60;3.30;;;9.50;99.90;;;;;;5073574;28;20195;-76
2023/03/26 12:38:44;;;;;;;4.00;3.53;;;9.40;99.90;;;;;;5073809;28;20176;-75
2023/03/26 12:41:18;;;;;;;6.37;5.30;;;9.40;99.90;;;;;;5074062;28;20275;-77
2023/03/26 12:43:49;;;;;;;6.27;4.37;;;9.60;99.90;;;;;;5073972;28;20168;-75
2023/03/26 12:46:26;;;;;;;8.70;6.00;;;9.70;99.90;;;;;;5074077;28;20234;-76
2023/03/26 12:48:54;;;;;;;5.03;4.53;;;10.00;99.90;;;;;;5074298;28;20230;-76
2023/03/26 12:51:47;;;;;;;5.23;3.70;;;10.00;99.90;;;;;;5073396;28;20184;-76
2023/03/26 12:55:05;;;;;;;4.83;3.30;;;10.10;99.90;;;;;;5073785;28;20262;-76
2023/03/26 12:57:37;;;;;;;3.97;3.33;;;10.30;99.90;;;;;;5031187;28;20189;-76
2023/03/26 13:00:36;;;;;;;3.90;2.67;;;10.40;99.90;;;;;;5031264;28;20271;-76
2023/03/26 13:03:15;;;;;;;3.13;2.93;;;10.50;99.90;;;;;;5031498;28;20174;-76
2023/03/26 13:06:21;;;;;;;2.87;2.67;;;10.80;99.90;;;;;;5031296;28;20174;-75
2023/03/26 13:09:16;;;;;;;2.83;2.63;;;11.10;99.90;;;;;;5031453;28;20189;-76
2023/03/26 13:12:17;;;;;;;3.40;2.97;;;10.90;99.90;;;;;;5031409;28;20256;-77
2023/03/26 13:15:08;;;;;;;2.53;2.33;;;10.90;99.90;;;;;;4952764;29;20207;-76
2023/03/26 13:17:42;;;;;;;2.53;2.10;;;10.90;99.90;;;;;;4946041;28;20247;-78
2023/03/26 13:20:23;;;;;;;1.73;1.63;;;11.10;99.90;;;;;;4952692;28;20295;-76
2023/03/26 13:23:31;;;;;;;2.03;1.80;;;11.10;99.90;;;;;;4953465;29;20196;-76
2023/03/26 13:26:14;;;;;;;2.40;2.20;;;11.20;99.90;;;;;;4952978;29;20181;-73
2023/03/26 13:28:48;;;;;;;1.87;1.63;;;11.30;99.90;;;;;;4952939;29;20704;-76
2023/03/26 13:31:26;;;;;;;1.77;1.67;;;11.40;99.90;;;;;;4952819;29;20212;-76